createdAt,value
2022-10-23T00:01:30.114Z,5.40
2022-10-23T00:04:03.408Z,5.60
2022-10-23T00:06:32.824Z,4.82
2022-10-23T00:09:00.939Z,5.40
2022-10-23T00:11:30.035Z,5.22
2022-10-23T00:14:00.675Z,5.05
2022-10-23T00:16:29.062Z,4.82
2022-10-23T00:18:56.590Z,4.38
2022-10-23T00:21:24.891Z,4.57
2022-10-23T00:26:20.343Z,4.25
2022-10-23T00:28:51.043Z,4.25
2022-10-23T00:31:20.128Z,4.50
2022-10-23T00:33:47.923Z,4.53
2022-10-23T00:36:18.109Z,3.97
2022-10-23T00:38:46.415Z,4.40
2022-10-23T00:41:21.885Z,4.63
2022-10-23T00:44:11.054Z,4.28
2022-10-23T00:46:39.643Z,4.53
2022-10-23T00:49:08.143Z,4.32
2022-10-23T00:51:46.437Z,4.22
2022-10-23T00:54:24.689Z,4.03
2022-10-23T00:56:56.695Z,4.03
2022-10-23T00:59:25.007Z,4.60
2022-10-23T01:04:20.110Z,4.22
2022-10-23T01:07:04.672Z,3.97
2022-10-23T01:09:42.116Z,4.13
2022-10-23T01:12:18.650Z,3.95
2022-10-23T01:15:04.075Z,4.28
2022-10-23T01:18:05.687Z,4.88
2022-10-23T01:20:50.654Z,4.50
2022-10-23T01:23:43.191Z,4.00
2022-10-23T01:26:22.814Z,4.57
2022-10-23T01:28:58.003Z,4.90
2022-10-23T01:31:35.462Z,4.60
2022-10-23T01:36:38.281Z,4.47
2022-10-23T01:39:12.165Z,5.00
2022-10-23T01:41:52.926Z,4.60
2022-10-23T01:44:29.114Z,4.57
2022-10-23T01:46:57.833Z,4.43
2022-10-23T01:49:29.587Z,4.63
2022-10-23T01:52:02.900Z,4.72
2022-10-23T01:54:36.350Z,5.13
2022-10-23T01:57:06.574Z,4.95
2022-10-23T01:59:38.775Z,5.35
2022-10-23T02:02:10.839Z,5.10
2022-10-23T02:04:47.501Z,4.68
2022-10-23T02:07:15.091Z,4.78
2022-10-23T02:09:42.752Z,5.35
2022-10-23T02:12:16.354Z,4.78
2022-10-23T02:14:56.408Z,5.50
2022-10-23T02:17:32.571Z,5.20
2022-10-23T02:20:30.019Z,5.95
2022-10-23T02:23:07.534Z,6.43
2022-10-23T02:25:44.328Z,6.53
2022-10-23T02:28:17.875Z,6.78
2022-10-23T02:30:50.210Z,6.28
2022-10-23T02:33:18.869Z,6.22
2022-10-23T02:35:48.379Z,6.03
2022-10-23T02:38:31.765Z,5.47
2022-10-23T02:41:21.096Z,5.78
2022-10-23T02:44:15.824Z,5.53
2022-10-23T02:47:03.207Z,4.63
2022-10-23T02:50:00.376Z,5.75
2022-10-23T02:52:42.402Z,5.35
2022-10-23T02:55:12.584Z,5.53
2022-10-23T02:58:00.483Z,5.50
2022-10-23T03:00:30.988Z,5.35
2022-10-23T03:03:07.249Z,5.57
2022-10-23T03:05:39.202Z,5.43
2022-10-23T03:08:13.173Z,4.97
2022-10-23T03:10:42.661Z,4.65
2022-10-23T03:13:11.138Z,4.90
2022-10-23T03:15:43.691Z,5.32
2022-10-23T03:18:14.236Z,5.00
2022-10-23T03:20:46.851Z,4.90
2022-10-23T03:23:15.402Z,4.55
2022-10-23T03:25:43.430Z,4.32
2022-10-23T03:28:21.154Z,4.00
2022-10-23T03:30:49.074Z,4.38
2022-10-23T03:33:16.668Z,4.72
2022-10-23T03:35:44.338Z,4.45
2022-10-23T03:38:15.864Z,5.00
2022-10-23T03:40:43.544Z,4.47
2022-10-23T03:43:13.779Z,4.50
2022-10-23T03:45:41.925Z,4.50
2022-10-23T03:48:09.411Z,4.95
2022-10-23T03:50:37.233Z,4.90
2022-10-23T03:53:06.049Z,4.10
2022-10-23T03:55:35.004Z,4.30
2022-10-23T03:58:02.466Z,4.40
2022-10-23T04:00:30.069Z,3.90
2022-10-23T04:02:57.619Z,4.50
2022-10-23T04:05:25.080Z,4.32
2022-10-23T04:07:57.079Z,4.40
2022-10-23T04:10:24.658Z,4.05
2022-10-23T04:12:52.046Z,3.95
2022-10-23T04:15:19.518Z,4.25
2022-10-23T04:17:47.426Z,4.22
2022-10-23T04:20:15.052Z,3.63
2022-10-23T04:22:42.791Z,3.47
2022-10-23T04:25:11.464Z,3.90
2022-10-23T04:27:39.045Z,3.50
2022-10-23T04:30:07.162Z,3.25
2022-10-23T04:32:34.707Z,3.15
2022-10-23T04:35:02.235Z,2.70
2022-10-23T04:37:31.450Z,2.90
2022-10-23T04:40:00.562Z,2.78
2022-10-23T04:42:28.271Z,2.53
2022-10-23T04:44:58.306Z,2.97
2022-10-23T04:47:25.763Z,3.05
2022-10-23T04:49:59.314Z,2.67
2022-10-23T04:52:57.075Z,2.60
2022-10-23T04:55:51.745Z,2.70
2022-10-23T04:58:39.635Z,2.30
2022-10-23T05:01:10.635Z,2.35
2022-10-23T05:03:39.005Z,2.47
2022-10-23T05:06:06.611Z,2.28
2022-10-23T05:08:54.277Z,2.25
2022-10-23T05:11:41.929Z,2.30
2022-10-23T05:14:10.093Z,1.80
2022-10-23T05:17:05.214Z,2.40
2022-10-23T05:19:43.647Z,1.77
2022-10-23T05:22:11.812Z,2.20
2022-10-23T05:24:52.215Z,2.08
2022-10-23T05:27:23.854Z,2.30
2022-10-23T05:29:52.882Z,2.17
2022-10-23T05:32:27.553Z,1.80
2022-10-23T05:34:55.744Z,1.95
2022-10-23T05:37:27.363Z,1.85
2022-10-23T05:40:04.789Z,1.85
2022-10-23T05:42:36.114Z,1.90
2022-10-23T05:45:06.385Z,1.90
2022-10-23T05:48:10.970Z,1.88
2022-10-23T05:51:08.266Z,1.83
2022-10-23T05:53:56.247Z,1.90
2022-10-23T05:56:41.640Z,1.80
2022-10-23T05:59:23.900Z,1.77
2022-10-23T06:01:58.352Z,1.65
2022-10-23T06:04:36.703Z,1.60
2022-10-23T06:07:32.326Z,1.50
2022-10-23T06:10:06.947Z,1.92
2022-10-23T06:12:39.175Z,1.60
2022-10-23T06:15:07.408Z,1.80
2022-10-23T06:18:04.572Z,2.10
2022-10-23T06:20:37.285Z,2.13
2022-10-23T06:23:12.391Z,2.08
2022-10-23T06:26:19.367Z,2.45
2022-10-23T06:29:15.995Z,1.90
2022-10-23T06:31:44.431Z,2.60
2022-10-23T06:34:13.764Z,2.05
2022-10-23T06:36:42.629Z,2.40
2022-10-23T06:39:31.253Z,2.35
2022-10-23T06:42:18.245Z,2.42
2022-10-23T06:44:54.692Z,4.55
2022-10-23T06:47:40.739Z,3.65
2022-10-23T06:53:00.818Z,3.42
2022-10-23T06:55:30.237Z,3.35
2022-10-23T06:57:57.878Z,3.38
2022-10-23T07:00:25.764Z,3.05
2022-10-23T07:02:54.218Z,3.45
2022-10-23T07:05:23.098Z,3.28
2022-10-23T07:07:50.596Z,3.60
2022-10-23T07:10:24.740Z,3.75
2022-10-23T07:13:00.775Z,3.28
2022-10-23T07:15:40.515Z,3.60
2022-10-23T07:18:14.558Z,3.58
2022-10-23T07:21:02.315Z,3.25
2022-10-23T07:23:31.819Z,3.67
2022-10-23T07:26:15.179Z,4.10
2022-10-23T07:28:44.760Z,3.60
2022-10-23T07:31:17.948Z,4.28
2022-10-23T07:34:17.294Z,4.70
2022-10-23T07:36:47.380Z,3.58
2022-10-23T07:39:15.062Z,4.20
2022-10-23T07:41:49.239Z,3.90
2022-10-23T07:44:20.211Z,4.03
2022-10-23T07:46:49.951Z,4.07
2022-10-23T07:49:19.065Z,4.00
2022-10-23T07:51:50.507Z,4.18
2022-10-23T07:54:19.096Z,4.20
2022-10-23T07:57:01.833Z,4.10
2022-10-23T07:59:40.711Z,3.80
2022-10-23T08:02:15.586Z,4.00
2022-10-23T08:04:44.592Z,4.28
2022-10-23T08:07:24.570Z,4.40
2022-10-23T08:09:55.563Z,4.10
2022-10-23T08:12:23.441Z,4.03
2022-10-23T08:14:50.922Z,4.10
2022-10-23T08:17:18.687Z,4.43
2022-10-23T08:20:06.380Z,4.32
2022-10-23T08:22:40.677Z,4.25
2022-10-23T08:25:09.643Z,4.05
2022-10-23T08:30:06.747Z,4.20
2022-10-23T08:32:34.419Z,4.30
2022-10-23T08:35:03.881Z,3.95
2022-10-23T08:37:32.973Z,3.97
2022-10-23T08:40:00.392Z,4.35
2022-10-23T08:42:57.370Z,4.13
2022-10-23T08:45:36.455Z,3.80
2022-10-23T08:48:49.176Z,4.32
2022-10-23T08:51:50.076Z,4.75
2022-10-23T08:54:31.445Z,5.82
2022-10-23T08:57:23.416Z,5.28
2022-10-23T09:00:00.519Z,5.35
2022-10-23T09:02:33.900Z,5.20
2022-10-23T09:05:01.607Z,4.85
2022-10-23T09:07:46.979Z,4.60
2022-10-23T09:10:38.814Z,4.63
2022-10-23T09:13:33.194Z,4.75
2022-10-23T09:16:24.572Z,4.60
2022-10-23T09:18:58.231Z,4.40
2022-10-23T09:21:27.961Z,4.20
2022-10-23T09:23:56.082Z,4.82
2022-10-23T09:26:23.766Z,4.35
2022-10-23T09:28:55.352Z,4.18
2022-10-23T09:31:22.776Z,4.30
2022-10-23T09:33:57.448Z,3.77
2022-10-23T09:36:28.280Z,3.60
2022-10-23T09:39:00.087Z,3.40
2022-10-23T09:41:37.231Z,3.85
2022-10-23T09:44:07.906Z,3.30
2022-10-23T09:46:43.189Z,3.10
2022-10-23T09:49:23.185Z,3.50
2022-10-23T09:52:11.787Z,2.90
2022-10-23T09:54:54.902Z,2.80
2022-10-23T09:57:40.801Z,3.05
2022-10-23T10:00:14.208Z,3.05
2022-10-23T10:02:44.306Z,2.92
2022-10-23T10:05:35.666Z,2.90
2022-10-23T10:08:21.097Z,3.05
2022-10-23T10:11:00.454Z,2.60
2022-10-23T10:13:59.128Z,2.63
2022-10-23T10:16:33.713Z,2.63
2022-10-23T10:19:16.159Z,2.90
2022-10-23T10:22:09.119Z,2.38
2022-10-23T10:24:47.839Z,2.42
2022-10-23T10:27:37.988Z,3.60
2022-10-23T10:30:05.920Z,4.63
2022-10-23T10:32:39.463Z,4.30
2022-10-23T10:35:28.615Z,3.65
2022-10-23T10:38:04.810Z,3.85
2022-10-23T10:40:42.526Z,3.40
2022-10-23T10:43:47.761Z,3.30
2022-10-23T10:46:26.432Z,3.35
2022-10-23T10:49:01.883Z,3.30
2022-10-23T10:51:52.994Z,3.63
2022-10-23T10:54:57.795Z,3.50
2022-10-23T10:57:39.773Z,3.20
2022-10-23T11:00:22.268Z,3.00
2022-10-23T11:02:54.866Z,3.20
2022-10-23T11:05:38.544Z,3.10
2022-10-23T11:08:18.013Z,2.78
2022-10-23T11:10:49.403Z,3.05
2022-10-23T11:13:38.351Z,3.05
2022-10-23T11:16:21.144Z,2.60
2022-10-23T11:19:03.291Z,2.63
2022-10-23T11:22:05.048Z,3.22
2022-10-23T11:25:01.233Z,3.25
2022-10-23T11:27:43.727Z,3.65
2022-10-23T11:30:23.546Z,3.20
2022-10-23T11:33:33.380Z,3.20
2022-10-23T11:36:14.213Z,3.40
2022-10-23T11:38:50.653Z,3.30
2022-10-23T11:41:25.364Z,3.22
2022-10-23T11:44:03.467Z,3.50
2022-10-23T11:46:36.751Z,3.78
2022-10-23T11:49:06.570Z,3.25
2022-10-23T11:51:36.229Z,3.25
2022-10-23T11:54:15.490Z,3.60
2022-10-23T11:56:54.687Z,3.35
2022-10-23T11:59:29.682Z,3.38
2022-10-23T12:02:00.693Z,3.50
2022-10-23T12:04:45.344Z,3.72
2022-10-23T12:07:26.575Z,3.78
2022-10-23T12:09:59.990Z,4.93
2022-10-23T12:12:30.290Z,3.58
2022-10-23T12:15:12.108Z,3.35
2022-10-23T12:17:40.824Z,3.40
2022-10-23T12:20:08.303Z,3.92
2022-10-23T12:22:54.219Z,3.50
2022-10-23T12:26:00.184Z,3.30
2022-10-23T12:28:54.810Z,3.25
2022-10-23T12:31:44.221Z,3.70
2022-10-23T12:34:14.439Z,3.15
2022-10-23T12:37:14.475Z,3.33
2022-10-23T12:39:41.953Z,3.20
2022-10-23T12:42:27.548Z,3.00
2022-10-23T12:45:03.331Z,3.30
2022-10-23T12:47:31.016Z,5.20
2022-10-23T12:49:58.485Z,2.95
2022-10-23T12:52:25.994Z,3.00
2022-10-23T12:54:53.444Z,3.17
2022-10-23T12:57:28.174Z,3.13
2022-10-23T12:59:58.561Z,2.92
2022-10-23T13:02:31.521Z,3.30
2022-10-23T13:05:02.701Z,3.00
2022-10-23T13:07:33.851Z,3.10
2022-10-23T13:10:04.251Z,3.60
2022-10-23T13:12:38.643Z,3.90
2022-10-23T13:15:10.834Z,5.13
2022-10-23T13:17:44.336Z,4.10
2022-10-23T13:20:18.167Z,4.90
2022-10-23T13:22:48.643Z,5.00
2022-10-23T13:25:31.605Z,5.20
2022-10-23T13:28:24.342Z,9.43
2022-10-23T13:31:07.805Z,5.47
2022-10-23T13:33:40.762Z,5.78
2022-10-23T13:36:13.951Z,4.68
2022-10-23T13:38:43.987Z,5.28
2022-10-23T13:41:18.621Z,5.10
2022-10-23T13:43:47.182Z,5.32
2022-10-23T13:46:20.514Z,4.82
2022-10-23T13:48:48.784Z,4.55
2022-10-23T13:51:30.859Z,5.32
2022-10-23T13:53:59.069Z,5.82
2022-10-23T13:56:27.723Z,5.07
2022-10-23T13:58:55.167Z,5.30
2022-10-23T14:01:32.693Z,4.65
2022-10-23T14:04:00.240Z,4.90
2022-10-23T14:06:27.648Z,4.22
2022-10-23T14:08:55.070Z,4.05
2022-10-23T14:11:22.843Z,4.80
2022-10-23T14:13:50.735Z,4.25
2022-10-23T14:16:23.544Z,3.85
2022-10-23T14:18:50.981Z,4.30
2022-10-23T14:21:20.359Z,4.32
2022-10-23T14:23:49.697Z,4.30
2022-10-23T14:26:23.795Z,4.50
2022-10-23T14:28:55.131Z,4.95
2022-10-23T14:31:22.932Z,4.65
2022-10-23T14:33:56.058Z,5.10
2022-10-23T14:36:24.145Z,4.57
2022-10-23T14:41:25.221Z,4.95
2022-10-23T14:43:54.724Z,4.43
2022-10-23T14:46:23.999Z,4.43
2022-10-23T14:48:57.512Z,4.10
2022-10-23T14:51:32.822Z,4.95
2022-10-23T14:54:02.665Z,4.07
2022-10-23T14:56:32.792Z,4.50
2022-10-23T14:59:02.945Z,4.32
2022-10-23T15:01:45.170Z,4.80
2022-10-23T15:04:14.667Z,4.45
2022-10-23T15:06:43.275Z,4.00
2022-10-23T15:09:11.008Z,4.63
2022-10-23T15:11:38.633Z,4.38
2022-10-23T15:14:09.002Z,4.43
2022-10-23T15:16:41.595Z,4.60
2022-10-23T15:19:13.671Z,4.35
2022-10-23T15:21:44.939Z,4.53
2022-10-23T15:24:12.324Z,4.13
2022-10-23T15:26:42.824Z,4.30
2022-10-23T15:29:11.229Z,4.45
2022-10-23T15:31:38.692Z,4.53
2022-10-23T15:34:06.480Z,4.20
2022-10-23T15:36:34.850Z,4.30
2022-10-23T15:39:02.767Z,4.70
2022-10-23T15:41:33.322Z,4.22
2022-10-23T15:44:02.182Z,4.28
2022-10-23T15:46:29.938Z,4.38
2022-10-23T15:48:58.305Z,4.60
2022-10-23T15:51:26.295Z,4.38
2022-10-23T15:53:54.336Z,4.07
2022-10-23T15:56:21.707Z,5.13
2022-10-23T15:58:49.192Z,4.80
2022-10-23T16:01:16.772Z,5.15
2022-10-23T16:03:44.704Z,4.95
2022-10-23T16:06:14.109Z,4.53
2022-10-23T16:08:43.670Z,4.10
2022-10-23T16:11:18.630Z,4.70
2022-10-23T16:13:46.331Z,2.30
2022-10-23T16:16:14.745Z,2.15
2022-10-23T16:18:43.737Z,1.75
2022-10-23T16:21:26.691Z,1.40
2022-10-23T16:23:57.000Z,1.92
2022-10-23T16:26:26.063Z,1.90
2022-10-23T16:28:58.804Z,1.48
2022-10-23T16:31:27.356Z,1.27
2022-10-23T16:36:25.310Z,1.00
2022-10-23T16:39:20.651Z,1.52
2022-10-23T16:42:07.227Z,1.27
2022-10-23T16:44:48.359Z,1.35
2022-10-23T16:47:15.782Z,1.40
2022-10-23T16:49:43.465Z,1.83
2022-10-23T16:52:11.126Z,1.30
2022-10-23T16:54:38.691Z,1.40
2022-10-23T16:57:06.232Z,1.30
2022-10-23T16:59:33.660Z,1.70
2022-10-23T17:02:01.196Z,1.48
2022-10-23T17:04:28.697Z,2.17
2022-10-23T17:06:56.187Z,2.20
2022-10-23T17:09:23.698Z,2.03
2022-10-23T17:11:53.028Z,2.10
2022-10-23T17:14:21.226Z,1.75
2022-10-23T17:19:43.435Z,1.42
2022-10-23T17:22:10.688Z,1.48
2022-10-23T17:24:42.492Z,1.73
2022-10-23T17:27:10.114Z,1.80
2022-10-23T17:29:38.150Z,1.90
2022-10-23T17:32:05.962Z,1.88
2022-10-23T17:34:33.559Z,2.33
2022-10-23T17:37:01.059Z,2.33
2022-10-23T17:39:29.974Z,1.85
2022-10-23T17:41:57.914Z,2.05
2022-10-23T17:44:25.774Z,4.55
2022-10-23T17:46:54.462Z,6.40
2022-10-23T17:49:23.215Z,4.90
2022-10-23T17:51:53.044Z,3.60
2022-10-23T17:54:21.422Z,3.70
2022-10-23T17:56:48.951Z,2.95
2022-10-23T17:59:19.015Z,2.90
2022-10-23T18:01:48.175Z,2.60
2022-10-23T18:04:18.489Z,3.20
2022-10-23T18:06:52.479Z,3.28
2022-10-23T18:09:21.410Z,3.05
2022-10-23T18:11:49.133Z,3.55
2022-10-23T18:14:19.273Z,3.45
2022-10-23T18:16:47.288Z,2.92
2022-10-23T18:19:17.168Z,3.40
2022-10-23T18:21:44.977Z,2.97
2022-10-23T18:24:12.491Z,2.88
2022-10-23T18:26:42.204Z,3.20
2022-10-23T18:29:11.907Z,3.30
2022-10-23T18:31:40.215Z,3.40
2022-10-23T18:36:43.273Z,3.78
2022-10-23T18:39:14.253Z,3.90
2022-10-23T18:41:44.375Z,4.05
2022-10-23T18:44:16.541Z,3.70
2022-10-23T18:46:45.730Z,3.80
2022-10-23T18:49:13.927Z,4.00
2022-10-23T18:51:41.728Z,5.75
2022-10-23T18:54:12.707Z,3.60
2022-10-23T18:56:40.485Z,3.88
2022-10-23T18:59:12.492Z,3.38
2022-10-23T19:01:40.295Z,3.22
2022-10-23T19:04:08.501Z,3.35
2022-10-23T19:09:09.535Z,3.58
2022-10-23T19:11:37.703Z,3.95
2022-10-23T19:14:05.624Z,3.60
2022-10-23T19:16:35.160Z,3.22
2022-10-23T19:19:07.244Z,3.05
2022-10-23T19:21:38.187Z,3.35
2022-10-23T19:24:10.822Z,3.45
2022-10-23T19:26:39.672Z,3.88
2022-10-23T19:29:09.831Z,3.70
2022-10-23T19:31:37.504Z,4.00
2022-10-23T19:34:04.979Z,3.55
2022-10-23T19:36:32.478Z,3.50
2022-10-23T19:38:59.958Z,3.67
2022-10-23T19:41:27.437Z,3.50
2022-10-23T19:43:54.875Z,3.60
2022-10-23T19:46:22.422Z,3.90
2022-10-23T19:48:49.932Z,4.25
2022-10-23T19:51:17.459Z,3.85
2022-10-23T19:53:44.991Z,3.30
2022-10-23T19:56:12.948Z,3.20
2022-10-23T19:58:41.356Z,3.50
2022-10-23T20:01:11.778Z,2.95
2022-10-23T20:03:41.659Z,2.85
2022-10-23T20:06:11.831Z,3.80
2022-10-23T20:08:40.456Z,3.17
2022-10-23T20:11:09.373Z,4.15
2022-10-23T20:13:36.937Z,4.10
2022-10-23T20:16:04.560Z,5.20
2022-10-23T20:18:31.971Z,4.63
2022-10-23T20:21:02.401Z,4.22
2022-10-23T20:23:30.039Z,4.18
2022-10-23T20:26:07.653Z,3.90
2022-10-23T20:28:35.451Z,4.00
2022-10-23T20:31:10.704Z,3.55
2022-10-23T20:33:40.312Z,3.53
2022-10-23T20:36:10.348Z,3.95
2022-10-23T20:38:37.761Z,4.35
2022-10-23T20:41:05.833Z,3.77
2022-10-23T20:43:33.888Z,3.60
2022-10-23T20:46:08.862Z,3.78
2022-10-23T20:48:41.374Z,3.97
2022-10-23T20:51:12.135Z,3.75
2022-10-23T20:53:40.682Z,4.20
2022-10-23T20:56:10.215Z,3.85
2022-10-23T20:58:37.695Z,3.78
2022-10-23T21:01:06.911Z,4.13
2022-10-23T21:03:34.888Z,3.90
2022-10-23T21:06:11.919Z,3.53
2022-10-23T21:08:40.410Z,3.27
2022-10-23T21:11:11.182Z,4.10
2022-10-23T21:13:38.875Z,3.80
2022-10-23T21:16:40.593Z,3.83
2022-10-23T21:19:08.808Z,2.95
2022-10-23T21:24:09.986Z,3.85
2022-10-23T21:26:37.479Z,3.58
2022-10-23T21:29:17.955Z,3.25
2022-10-23T21:31:53.178Z,4.00
2022-10-23T21:34:20.845Z,3.70
2022-10-23T21:37:11.328Z,3.65
2022-10-23T21:39:36.075Z,3.60
2022-10-23T21:42:03.648Z,3.83
2022-10-23T21:44:31.004Z,3.53
2022-10-23T21:46:58.439Z,3.33
2022-10-23T21:49:25.862Z,3.78
2022-10-23T21:51:54.899Z,3.60
2022-10-23T21:54:22.632Z,3.22
2022-10-23T21:56:53.759Z,3.20
2022-10-23T21:59:27.692Z,3.60
2022-10-23T22:01:57.680Z,3.92
2022-10-23T22:04:25.228Z,3.55
2022-10-23T22:06:53.275Z,3.97
2022-10-23T22:09:21.655Z,3.72
2022-10-23T22:11:50.369Z,3.42
2022-10-23T22:14:18.377Z,3.95
2022-10-23T22:16:46.330Z,4.00
2022-10-23T22:19:16.358Z,4.10
2022-10-23T22:21:44.231Z,4.28
2022-10-23T22:24:12.145Z,3.58
2022-10-23T22:26:45.291Z,3.97
2022-10-23T22:29:15.219Z,4.05
2022-10-23T22:31:45.573Z,3.95
2022-10-23T22:34:28.636Z,3.38
2022-10-23T22:37:10.280Z,3.90
2022-10-23T22:39:38.461Z,3.63
2022-10-23T22:44:33.163Z,3.80
2022-10-23T22:47:00.575Z,4.15
2022-10-23T22:49:28.091Z,4.25
2022-10-23T22:51:55.454Z,4.40
2022-10-23T22:54:22.866Z,4.27
2022-10-23T22:56:50.243Z,4.50
2022-10-23T22:59:17.680Z,4.32
2022-10-23T23:01:47.087Z,5.10
2022-10-23T23:04:37.808Z,4.57
2022-10-23T23:07:07.133Z,4.95
2022-10-23T23:09:37.803Z,4.90
2022-10-23T23:12:05.947Z,4.50
2022-10-23T23:14:33.495Z,5.03
2022-10-23T23:17:00.942Z,4.25
2022-10-23T23:19:28.531Z,4.47
2022-10-23T23:21:57.964Z,4.25
2022-10-23T23:24:26.523Z,4.95
2022-10-23T23:26:54.010Z,5.55
2022-10-23T23:29:21.744Z,4.53
2022-10-23T23:31:49.267Z,4.70
2022-10-23T23:34:16.775Z,4.38
2022-10-23T23:36:44.214Z,4.77
2022-10-23T23:39:11.895Z,5.10
2022-10-23T23:41:39.319Z,5.55
2022-10-23T23:44:08.329Z,4.73
2022-10-23T23:46:35.752Z,5.05
2022-10-23T23:49:03.257Z,5.43
2022-10-23T23:51:30.739Z,4.55
2022-10-23T23:53:58.087Z,4.63
2022-10-23T23:56:25.575Z,5.10
2022-10-23T23:58:52.982Z,4.20
